sensor_id;sensor_type;location;lat;lon;timestamp;P1;durP1;ratioP1;P2;durP2;ratioP2
27839;SDS011;15207;42.182;24.308;2023-04-24T00:00:15;16.92;;;10.43;;
27839;SDS011;15207;42.182;24.308;2023-04-24T00:02:42;18.20;;;9.05;;
27839;SDS011;15207;42.182;24.308;2023-04-24T00:05:13;14.98;;;8.52;;
27839;SDS011;15207;42.182;24.308;2023-04-24T00:07:39;17.17;;;8.90;;
27839;SDS011;15207;42.182;24.308;2023-04-24T00:10:06;15.07;;;8.80;;
27839;SDS011;15207;42.182;24.308;2023-04-24T00:12:32;14.90;;;9.32;;
27839;SDS011;15207;42.182;24.308;2023-04-24T00:14:58;18.45;;;9.38;;
27839;SDS011;15207;42.182;24.308;2023-04-24T00:17:23;18.02;;;8.80;;
27839;SDS011;15207;42.182;24.308;2023-04-24T00:19:49;20.98;;;11.50;;
27839;SDS011;15207;42.182;24.308;2023-04-24T00:22:23;29.13;;;15.65;;
27839;SDS011;15207;42.182;24.308;2023-04-24T00:24:50;34.03;;;18.48;;
27839;SDS011;15207;42.182;24.308;2023-04-24T00:27:15;45.05;;;22.92;;
27839;SDS011;15207;42.182;24.308;2023-04-24T00:29:41;39.53;;;22.88;;
27839;SDS011;15207;42.182;24.308;2023-04-24T00:32:06;20.13;;;12.38;;
27839;SDS011;15207;42.182;24.308;2023-04-24T00:34:31;15.45;;;9.48;;
27839;SDS011;15207;42.182;24.308;2023-04-24T00:36:57;15.63;;;9.57;;
27839;SDS011;15207;42.182;24.308;2023-04-24T00:39:23;14.70;;;9.05;;
27839;SDS011;15207;42.182;24.308;2023-04-24T00:41:48;14.93;;;9.27;;
27839;SDS011;15207;42.182;24.308;2023-04-24T00:44:15;15.07;;;9.18;;
27839;SDS011;15207;42.182;24.308;2023-04-24T00:46:41;14.45;;;8.80;;
27839;SDS011;15207;42.182;24.308;2023-04-24T00:49:07;13.05;;;7.95;;
27839;SDS011;15207;42.182;24.308;2023-04-24T00:51:33;10.38;;;7.68;;
27839;SDS011;15207;42.182;24.308;2023-04-24T00:53:59;12.05;;;7.07;;
27839;SDS011;15207;42.182;24.308;2023-04-24T00:56:26;11.13;;;7.18;;
27839;SDS011;15207;42.182;24.308;2023-04-24T00:58:52;13.77;;;7.18;;
27839;SDS011;15207;42.182;24.308;2023-04-24T01:01:20;9.00;;;6.35;;
27839;SDS011;15207;42.182;24.308;2023-04-24T01:03:47;9.70;;;6.88;;
27839;SDS011;15207;42.182;24.308;2023-04-24T01:06:15;12.90;;;6.30;;
27839;SDS011;15207;42.182;24.308;2023-04-24T01:08:43;12.75;;;7.10;;
27839;SDS011;15207;42.182;24.308;2023-04-24T01:11:10;10.45;;;6.22;;
27839;SDS011;15207;42.182;24.308;2023-04-24T01:13:36;11.77;;;6.18;;
27839;SDS011;15207;42.182;24.308;2023-04-24T01:16:02;10.15;;;5.75;;
27839;SDS011;15207;42.182;24.308;2023-04-24T01:18:27;10.45;;;6.30;;
27839;SDS011;15207;42.182;24.308;2023-04-24T01:20:53;11.15;;;6.82;;
27839;SDS011;15207;42.182;24.308;2023-04-24T01:23:28;9.18;;;5.78;;
27839;SDS011;15207;42.182;24.308;2023-04-24T01:25:54;9.60;;;6.00;;
27839;SDS011;15207;42.182;24.308;2023-04-24T01:28:19;9.55;;;6.55;;
27839;SDS011;15207;42.182;24.308;2023-04-24T01:30:46;11.07;;;6.70;;
27839;SDS011;15207;42.182;24.308;2023-04-24T01:33:11;10.05;;;6.85;;
27839;SDS011;15207;42.182;24.308;2023-04-24T01:35:38;12.57;;;6.72;;
27839;SDS011;15207;42.182;24.308;2023-04-24T01:38:04;11.40;;;6.78;;
27839;SDS011;15207;42.182;24.308;2023-04-24T01:40:30;12.13;;;7.43;;
27839;SDS011;15207;42.182;24.308;2023-04-24T01:42:57;10.55;;;6.38;;
27839;SDS011;15207;42.182;24.308;2023-04-24T01:45:23;10.18;;;6.45;;
27839;SDS011;15207;42.182;24.308;2023-04-24T01:47:48;9.18;;;6.68;;
27839;SDS011;15207;42.182;24.308;2023-04-24T01:50:15;10.23;;;6.10;;
27839;SDS011;15207;42.182;24.308;2023-04-24T01:52:41;8.43;;;6.55;;
27839;SDS011;15207;42.182;24.308;2023-04-24T01:55:06;11.77;;;6.70;;
27839;SDS011;15207;42.182;24.308;2023-04-24T01:57:33;16.20;;;7.10;;
27839;SDS011;15207;42.182;24.308;2023-04-24T01:59:58;13.73;;;7.25;;
27839;SDS011;15207;42.182;24.308;2023-04-24T02:02:24;10.88;;;7.38;;
27839;SDS011;15207;42.182;24.308;2023-04-24T02:04:55;13.80;;;7.10;;
27839;SDS011;15207;42.182;24.308;2023-04-24T02:07:21;13.13;;;7.28;;
27839;SDS011;15207;42.182;24.308;2023-04-24T02:09:46;12.25;;;7.45;;
27839;SDS011;15207;42.182;24.308;2023-04-24T02:12:12;12.05;;;7.32;;
27839;SDS011;15207;42.182;24.308;2023-04-24T02:14:38;11.65;;;7.55;;
27839;SDS011;15207;42.182;24.308;2023-04-24T02:17:03;14.75;;;7.53;;
27839;SDS011;15207;42.182;24.308;2023-04-24T02:19:30;10.38;;;7.15;;
27839;SDS011;15207;42.182;24.308;2023-04-24T02:21:55;13.25;;;8.15;;
27839;SDS011;15207;42.182;24.308;2023-04-24T02:24:21;13.88;;;8.38;;
27839;SDS011;15207;42.182;24.308;2023-04-24T02:26:46;11.48;;;8.43;;
27839;SDS011;15207;42.182;24.308;2023-04-24T02:29:12;12.50;;;8.32;;
27839;SDS011;15207;42.182;24.308;2023-04-24T02:31:37;22.05;;;10.88;;
27839;SDS011;15207;42.182;24.308;2023-04-24T02:34:03;15.25;;;8.85;;
27839;SDS011;15207;42.182;24.308;2023-04-24T02:36:28;13.75;;;8.52;;
27839;SDS011;15207;42.182;24.308;2023-04-24T02:38:54;14.15;;;9.20;;
27839;SDS011;15207;42.182;24.308;2023-04-24T02:41:20;13.65;;;9.05;;
27839;SDS011;15207;42.182;24.308;2023-04-24T02:43:45;16.95;;;8.85;;
27839;SDS011;15207;42.182;24.308;2023-04-24T02:46:11;15.63;;;9.07;;
27839;SDS011;15207;42.182;24.308;2023-04-24T02:48:36;16.27;;;8.05;;
27839;SDS011;15207;42.182;24.308;2023-04-24T02:51:02;14.82;;;8.02;;
27839;SDS011;15207;42.182;24.308;2023-04-24T02:53:27;14.57;;;7.65;;
27839;SDS011;15207;42.182;24.308;2023-04-24T02:55:54;12.45;;;8.07;;
27839;SDS011;15207;42.182;24.308;2023-04-24T02:58:20;13.15;;;8.45;;
27839;SDS011;15207;42.182;24.308;2023-04-24T03:00:46;16.55;;;7.97;;
27839;SDS011;15207;42.182;24.308;2023-04-24T03:03:12;14.15;;;7.57;;
27839;SDS011;15207;42.182;24.308;2023-04-24T03:05:38;15.48;;;7.72;;
27839;SDS011;15207;42.182;24.308;2023-04-24T03:08:03;16.23;;;8.30;;
27839;SDS011;15207;42.182;24.308;2023-04-24T03:10:29;16.65;;;7.88;;
27839;SDS011;15207;42.182;24.308;2023-04-24T03:12:55;16.83;;;7.63;;
27839;SDS011;15207;42.182;24.308;2023-04-24T03:15:21;13.75;;;7.70;;
27839;SDS011;15207;42.182;24.308;2023-04-24T03:17:46;13.45;;;7.70;;
27839;SDS011;15207;42.182;24.308;2023-04-24T03:20:12;15.20;;;7.88;;
27839;SDS011;15207;42.182;24.308;2023-04-24T03:22:37;13.05;;;7.80;;
27839;SDS011;15207;42.182;24.308;2023-04-24T03:25:03;17.20;;;8.18;;
27839;SDS011;15207;42.182;24.308;2023-04-24T03:27:30;12.18;;;7.53;;
27839;SDS011;15207;42.182;24.308;2023-04-24T03:29:55;12.05;;;7.78;;
27839;SDS011;15207;42.182;24.308;2023-04-24T03:32:21;12.90;;;7.88;;
27839;SDS011;15207;42.182;24.308;2023-04-24T03:34:48;13.05;;;7.00;;
27839;SDS011;15207;42.182;24.308;2023-04-24T03:37:14;13.68;;;8.32;;
27839;SDS011;15207;42.182;24.308;2023-04-24T03:39:40;14.27;;;8.50;;
27839;SDS011;15207;42.182;24.308;2023-04-24T03:42:05;17.75;;;9.35;;
27839;SDS011;15207;42.182;24.308;2023-04-24T03:44:31;13.20;;;8.90;;
27839;SDS011;15207;42.182;24.308;2023-04-24T03:46:57;15.13;;;9.20;;
27839;SDS011;15207;42.182;24.308;2023-04-24T03:49:23;13.70;;;8.68;;
27839;SDS011;15207;42.182;24.308;2023-04-24T03:51:48;10.32;;;7.32;;
27839;SDS011;15207;42.182;24.308;2023-04-24T03:54:14;11.38;;;7.20;;
27839;SDS011;15207;42.182;24.308;2023-04-24T03:56:39;14.90;;;8.25;;
27839;SDS011;15207;42.182;24.308;2023-04-24T03:59:05;11.77;;;7.95;;
27839;SDS011;15207;42.182;24.308;2023-04-24T04:01:30;13.00;;;7.85;;
27839;SDS011;15207;42.182;24.308;2023-04-24T04:03:56;13.15;;;7.85;;
27839;SDS011;15207;42.182;24.308;2023-04-24T04:06:21;11.73;;;8.07;;
27839;SDS011;15207;42.182;24.308;2023-04-24T04:08:47;11.30;;;7.65;;
27839;SDS011;15207;42.182;24.308;2023-04-24T04:11:12;11.45;;;7.75;;
27839;SDS011;15207;42.182;24.308;2023-04-24T04:13:38;11.45;;;7.53;;
27839;SDS011;15207;42.182;24.308;2023-04-24T04:16:04;11.43;;;7.63;;
27839;SDS011;15207;42.182;24.308;2023-04-24T04:18:30;10.75;;;7.20;;
27839;SDS011;15207;42.182;24.308;2023-04-24T04:20:55;11.32;;;7.43;;
27839;SDS011;15207;42.182;24.308;2023-04-24T04:23:22;11.55;;;8.27;;
27839;SDS011;15207;42.182;24.308;2023-04-24T04:25:48;11.73;;;7.15;;
27839;SDS011;15207;42.182;24.308;2023-04-24T04:28:14;14.13;;;7.38;;
27839;SDS011;15207;42.182;24.308;2023-04-24T04:30:40;11.02;;;6.70;;
27839;SDS011;15207;42.182;24.308;2023-04-24T04:33:06;11.45;;;6.93;;
27839;SDS011;15207;42.182;24.308;2023-04-24T04:35:33;10.93;;;6.38;;
27839;SDS011;15207;42.182;24.308;2023-04-24T04:37:58;9.57;;;6.57;;
27839;SDS011;15207;42.182;24.308;2023-04-24T04:40:24;11.57;;;7.22;;
27839;SDS011;15207;42.182;24.308;2023-04-24T04:42:49;14.23;;;8.48;;
27839;SDS011;15207;42.182;24.308;2023-04-24T04:45:18;13.40;;;7.28;;
27839;SDS011;15207;42.182;24.308;2023-04-24T04:47:43;10.02;;;6.47;;
27839;SDS011;15207;42.182;24.308;2023-04-24T04:50:09;13.93;;;7.05;;
27839;SDS011;15207;42.182;24.308;2023-04-24T04:52:35;9.25;;;6.55;;
27839;SDS011;15207;42.182;24.308;2023-04-24T04:55:01;12.00;;;6.55;;
27839;SDS011;15207;42.182;24.308;2023-04-24T04:57:27;11.98;;;6.28;;
27839;SDS011;15207;42.182;24.308;2023-04-24T04:59:52;10.60;;;7.00;;
27839;SDS011;15207;42.182;24.308;2023-04-24T05:02:18;13.95;;;7.38;;
27839;SDS011;15207;42.182;24.308;2023-04-24T05:04:43;14.05;;;6.40;;
27839;SDS011;15207;42.182;24.308;2023-04-24T05:07:10;10.43;;;6.80;;
27839;SDS011;15207;42.182;24.308;2023-04-24T05:09:35;13.18;;;6.57;;
27839;SDS011;15207;42.182;24.308;2023-04-24T05:12:01;9.77;;;5.20;;
27839;SDS011;15207;42.182;24.308;2023-04-24T05:14:27;102.53;;;13.30;;
27839;SDS011;15207;42.182;24.308;2023-04-24T05:16:52;11.35;;;5.90;;
27839;SDS011;15207;42.182;24.308;2023-04-24T05:19:18;10.70;;;5.47;;
27839;SDS011;15207;42.182;24.308;2023-04-24T05:21:43;8.43;;;5.80;;
27839;SDS011;15207;42.182;24.308;2023-04-24T05:24:09;7.80;;;5.57;;
27839;SDS011;15207;42.182;24.308;2023-04-24T05:26:34;10.30;;;5.68;;
27839;SDS011;15207;42.182;24.308;2023-04-24T05:29:02;11.75;;;5.20;;
27839;SDS011;15207;42.182;24.308;2023-04-24T05:31:27;12.07;;;4.57;;
27839;SDS011;15207;42.182;24.308;2023-04-24T05:33:53;12.40;;;5.22;;
27839;SDS011;15207;42.182;24.308;2023-04-24T05:36:18;12.73;;;4.95;;
27839;SDS011;15207;42.182;24.308;2023-04-24T05:38:44;9.85;;;4.97;;
27839;SDS011;15207;42.182;24.308;2023-04-24T05:41:10;13.30;;;5.50;;
27839;SDS011;15207;42.182;24.308;2023-04-24T05:43:35;11.68;;;4.82;;
27839;SDS011;15207;42.182;24.308;2023-04-24T05:46:01;9.40;;;5.30;;
27839;SDS011;15207;42.182;24.308;2023-04-24T05:48:27;8.73;;;4.35;;
27839;SDS011;15207;42.182;24.308;2023-04-24T05:50:52;9.32;;;4.53;;
27839;SDS011;15207;42.182;24.308;2023-04-24T05:53:18;5.05;;;4.00;;
27839;SDS011;15207;42.182;24.308;2023-04-24T05:55:44;8.15;;;4.60;;
27839;SDS011;15207;42.182;24.308;2023-04-24T05:58:10;15.20;;;5.10;;
27839;SDS011;15207;42.182;24.308;2023-04-24T06:00:36;6.88;;;4.35;;
27839;SDS011;15207;42.182;24.308;2023-04-24T06:03:02;9.80;;;4.60;;
27839;SDS011;15207;42.182;24.308;2023-04-24T06:05:29;8.30;;;4.28;;
27839;SDS011;15207;42.182;24.308;2023-04-24T06:07:55;5.80;;;4.00;;
27839;SDS011;15207;42.182;24.308;2023-04-24T06:10:20;7.55;;;4.03;;
27839;SDS011;15207;42.182;24.308;2023-04-24T06:12:46;5.82;;;4.20;;
27839;SDS011;15207;42.182;24.308;2023-04-24T06:15:12;6.75;;;4.15;;
27839;SDS011;15207;42.182;24.308;2023-04-24T06:17:37;6.53;;;3.60;;
27839;SDS011;15207;42.182;24.308;2023-04-24T06:20:03;9.55;;;4.25;;
27839;SDS011;15207;42.182;24.308;2023-04-24T06:22:31;7.88;;;3.90;;
27839;SDS011;15207;42.182;24.308;2023-04-24T06:24:57;7.15;;;4.00;;
27839;SDS011;15207;42.182;24.308;2023-04-24T06:27:22;7.38;;;3.92;;
27839;SDS011;15207;42.182;24.308;2023-04-24T06:29:48;6.32;;;3.78;;
27839;SDS011;15207;42.182;24.308;2023-04-24T06:32:20;5.82;;;3.75;;
27839;SDS011;15207;42.182;24.308;2023-04-24T06:34:47;7.80;;;4.22;;
27839;SDS011;15207;42.182;24.308;2023-04-24T06:37:12;9.32;;;3.90;;
27839;SDS011;15207;42.182;24.308;2023-04-24T06:39:38;5.30;;;3.75;;
27839;SDS011;15207;42.182;24.308;2023-04-24T06:42:03;7.50;;;3.50;;
27839;SDS011;15207;42.182;24.308;2023-04-24T06:44:29;5.18;;;3.58;;
27839;SDS011;15207;42.182;24.308;2023-04-24T06:46:54;6.05;;;3.90;;
27839;SDS011;15207;42.182;24.308;2023-04-24T06:49:20;8.32;;;4.13;;
27839;SDS011;15207;42.182;24.308;2023-04-24T06:51:45;7.35;;;4.57;;
27839;SDS011;15207;42.182;24.308;2023-04-24T06:54:11;7.97;;;4.13;;
27839;SDS011;15207;42.182;24.308;2023-04-24T06:56:36;7.32;;;4.43;;
27839;SDS011;15207;42.182;24.308;2023-04-24T06:59:02;8.80;;;3.92;;
27839;SDS011;15207;42.182;24.308;2023-04-24T07:01:27;5.70;;;3.92;;
27839;SDS011;15207;42.182;24.308;2023-04-24T07:03:53;9.65;;;4.53;;
27839;SDS011;15207;42.182;24.308;2023-04-24T07:06:18;6.68;;;3.97;;
27839;SDS011;15207;42.182;24.308;2023-04-24T07:08:47;7.03;;;4.20;;
27839;SDS011;15207;42.182;24.308;2023-04-24T07:11:13;4.60;;;3.60;;
27839;SDS011;15207;42.182;24.308;2023-04-24T07:13:38;5.65;;;3.90;;
27839;SDS011;15207;42.182;24.308;2023-04-24T07:16:07;9.32;;;5.68;;
27839;SDS011;15207;42.182;24.308;2023-04-24T07:18:33;7.60;;;5.47;;
27839;SDS011;15207;42.182;24.308;2023-04-24T07:20:59;15.30;;;10.98;;
27839;SDS011;15207;42.182;24.308;2023-04-24T07:23:24;9.75;;;5.15;;
27839;SDS011;15207;42.182;24.308;2023-04-24T07:25:50;6.85;;;4.72;;
27839;SDS011;15207;42.182;24.308;2023-04-24T07:28:15;6.20;;;4.10;;
27839;SDS011;15207;42.182;24.308;2023-04-24T07:30:42;6.50;;;4.60;;
27839;SDS011;15207;42.182;24.308;2023-04-24T07:33:08;9.27;;;4.20;;
27839;SDS011;15207;42.182;24.308;2023-04-24T07:35:36;7.97;;;4.30;;
27839;SDS011;15207;42.182;24.308;2023-04-24T07:38:01;7.50;;;4.00;;
27839;SDS011;15207;42.182;24.308;2023-04-24T07:40:27;5.88;;;4.18;;
27839;SDS011;15207;42.182;24.308;2023-04-24T07:42:52;5.80;;;3.67;;
27839;SDS011;15207;42.182;24.308;2023-04-24T07:45:18;5.95;;;3.47;;
27839;SDS011;15207;42.182;24.308;2023-04-24T07:47:43;5.28;;;3.42;;
27839;SDS011;15207;42.182;24.308;2023-04-24T07:50:11;7.97;;;4.00;;
27839;SDS011;15207;42.182;24.308;2023-04-24T07:52:37;5.13;;;3.92;;
27839;SDS011;15207;42.182;24.308;2023-04-24T07:55:03;6.38;;;4.03;;
27839;SDS011;15207;42.182;24.308;2023-04-24T07:57:29;4.28;;;3.40;;
27839;SDS011;15207;42.182;24.308;2023-04-24T07:59:55;7.88;;;5.20;;
27839;SDS011;15207;42.182;24.308;2023-04-24T08:02:20;7.78;;;4.50;;
27839;SDS011;15207;42.182;24.308;2023-04-24T08:04:51;7.70;;;4.65;;
27839;SDS011;15207;42.182;24.308;2023-04-24T08:07:20;8.52;;;4.40;;
27839;SDS011;15207;42.182;24.308;2023-04-24T08:09:45;6.45;;;4.75;;
27839;SDS011;15207;42.182;24.308;2023-04-24T08:12:12;8.43;;;4.93;;
27839;SDS011;15207;42.182;24.308;2023-04-24T08:14:38;8.52;;;4.72;;
27839;SDS011;15207;42.182;24.308;2023-04-24T08:17:03;8.82;;;4.72;;
27839;SDS011;15207;42.182;24.308;2023-04-24T08:19:29;8.98;;;4.75;;
27839;SDS011;15207;42.182;24.308;2023-04-24T08:21:54;13.00;;;4.38;;
27839;SDS011;15207;42.182;24.308;2023-04-24T08:24:20;9.73;;;4.88;;
27839;SDS011;15207;42.182;24.308;2023-04-24T08:26:47;9.55;;;4.68;;
27839;SDS011;15207;42.182;24.308;2023-04-24T08:29:17;7.55;;;4.25;;
27839;SDS011;15207;42.182;24.308;2023-04-24T08:31:42;11.32;;;4.63;;
27839;SDS011;15207;42.182;24.308;2023-04-24T08:34:09;9.23;;;4.57;;
27839;SDS011;15207;42.182;24.308;2023-04-24T08:36:35;11.40;;;4.80;;
27839;SDS011;15207;42.182;24.308;2023-04-24T08:39:00;8.52;;;4.75;;
27839;SDS011;15207;42.182;24.308;2023-04-24T08:41:26;7.85;;;4.63;;
27839;SDS011;15207;42.182;24.308;2023-04-24T08:43:52;5.90;;;4.50;;
27839;SDS011;15207;42.182;24.308;2023-04-24T08:46:18;6.97;;;5.18;;
27839;SDS011;15207;42.182;24.308;2023-04-24T08:48:45;6.22;;;4.30;;
27839;SDS011;15207;42.182;24.308;2023-04-24T08:51:11;9.00;;;4.72;;
27839;SDS011;15207;42.182;24.308;2023-04-24T08:53:37;7.38;;;4.00;;
27839;SDS011;15207;42.182;24.308;2023-04-24T08:56:03;8.25;;;4.90;;
27839;SDS011;15207;42.182;24.308;2023-04-24T08:58:29;9.85;;;4.90;;
27839;SDS011;15207;42.182;24.308;2023-04-24T09:00:55;8.85;;;5.03;;
27839;SDS011;15207;42.182;24.308;2023-04-24T09:03:22;8.55;;;4.28;;
27839;SDS011;15207;42.182;24.308;2023-04-24T09:05:48;7.53;;;4.32;;
27839;SDS011;15207;42.182;24.308;2023-04-24T09:08:16;6.88;;;4.07;;
27839;SDS011;15207;42.182;24.308;2023-04-24T09:10:43;7.45;;;4.35;;
27839;SDS011;15207;42.182;24.308;2023-04-24T09:13:09;10.48;;;4.00;;
27839;SDS011;15207;42.182;24.308;2023-04-24T09:15:36;6.07;;;3.88;;
27839;SDS011;15207;42.182;24.308;2023-04-24T09:18:03;6.43;;;4.25;;
27839;SDS011;15207;42.182;24.308;2023-04-24T09:20:30;9.00;;;4.45;;
27839;SDS011;15207;42.182;24.308;2023-04-24T09:22:56;8.85;;;4.32;;
27839;SDS011;15207;42.182;24.308;2023-04-24T09:25:25;5.50;;;3.63;;
27839;SDS011;15207;42.182;24.308;2023-04-24T09:28:00;5.32;;;3.72;;
27839;SDS011;15207;42.182;24.308;2023-04-24T09:30:27;14.20;;;4.50;;
27839;SDS011;15207;42.182;24.308;2023-04-24T09:35:50;6.85;;;4.00;;
27839;SDS011;15207;42.182;24.308;2023-04-24T09:38:17;5.20;;;3.53;;
27839;SDS011;15207;42.182;24.308;2023-04-24T09:40:43;6.07;;;3.85;;
27839;SDS011;15207;42.182;24.308;2023-04-24T09:43:12;6.05;;;4.65;;
27839;SDS011;15207;42.182;24.308;2023-04-24T09:45:38;6.80;;;4.22;;
27839;SDS011;15207;42.182;24.308;2023-04-24T09:48:04;7.07;;;4.30;;
27839;SDS011;15207;42.182;24.308;2023-04-24T09:50:31;5.18;;;3.97;;
27839;SDS011;15207;42.182;24.308;2023-04-24T09:52:58;4.75;;;3.70;;
27839;SDS011;15207;42.182;24.308;2023-04-24T09:55:26;7.55;;;4.22;;
27839;SDS011;15207;42.182;24.308;2023-04-24T09:57:55;7.57;;;4.10;;
27839;SDS011;15207;42.182;24.308;2023-04-24T10:00:22;6.28;;;3.97;;
27839;SDS011;15207;42.182;24.308;2023-04-24T10:02:57;8.05;;;4.60;;
27839;SDS011;15207;42.182;24.308;2023-04-24T10:05:26;6.22;;;4.38;;
27839;SDS011;15207;42.182;24.308;2023-04-24T10:10:28;8.10;;;4.75;;
27839;SDS011;15207;42.182;24.308;2023-04-24T10:12:55;5.50;;;4.15;;
27839;SDS011;15207;42.182;24.308;2023-04-24T10:15:20;7.68;;;4.13;;
27839;SDS011;15207;42.182;24.308;2023-04-24T10:17:48;6.07;;;3.72;;
27839;SDS011;15207;42.182;24.308;2023-04-24T10:20:18;4.32;;;3.55;;
27839;SDS011;15207;42.182;24.308;2023-04-24T10:22:47;6.57;;;4.27;;
27839;SDS011;15207;42.182;24.308;2023-04-24T10:27:42;6.07;;;4.38;;
27839;SDS011;15207;42.182;24.308;2023-04-24T10:30:08;10.43;;;4.28;;
27839;SDS011;15207;42.182;24.308;2023-04-24T10:32:36;6.70;;;3.90;;
27839;SDS011;15207;42.182;24.308;2023-04-24T10:35:01;5.05;;;3.67;;
27839;SDS011;15207;42.182;24.308;2023-04-24T10:37:27;7.97;;;4.43;;
27839;SDS011;15207;42.182;24.308;2023-04-24T10:39:53;5.47;;;3.70;;
27839;SDS011;15207;42.182;24.308;2023-04-24T10:42:21;5.50;;;4.35;;
27839;SDS011;15207;42.182;24.308;2023-04-24T10:44:47;7.00;;;4.28;;
27839;SDS011;15207;42.182;24.308;2023-04-24T10:47:14;5.25;;;4.38;;
27839;SDS011;15207;42.182;24.308;2023-04-24T10:49:40;7.25;;;4.57;;
27839;SDS011;15207;42.182;24.308;2023-04-24T10:52:06;5.28;;;3.63;;
27839;SDS011;15207;42.182;24.308;2023-04-24T10:59:44;8.40;;;4.78;;
27839;SDS011;15207;42.182;24.308;2023-04-24T11:02:09;8.88;;;5.15;;
27839;SDS011;15207;42.182;24.308;2023-04-24T11:04:35;6.63;;;4.63;;
27839;SDS011;15207;42.182;24.308;2023-04-24T11:07:02;7.18;;;5.20;;
27839;SDS011;15207;42.182;24.308;2023-04-24T11:09:30;10.40;;;5.60;;
27839;SDS011;15207;42.182;24.308;2023-04-24T11:12:03;7.28;;;4.53;;
27839;SDS011;15207;42.182;24.308;2023-04-24T11:17:31;5.90;;;4.57;;
27839;SDS011;15207;42.182;24.308;2023-04-24T11:20:09;7.15;;;4.80;;
27839;SDS011;15207;42.182;24.308;2023-04-24T11:22:37;9.20;;;5.05;;
27839;SDS011;15207;42.182;24.308;2023-04-24T11:25:05;8.65;;;4.95;;
27839;SDS011;15207;42.182;24.308;2023-04-24T11:27:41;12.02;;;4.90;;
27839;SDS011;15207;42.182;24.308;2023-04-24T11:30:08;9.52;;;4.90;;
27839;SDS011;15207;42.182;24.308;2023-04-24T11:32:42;8.30;;;5.65;;
27839;SDS011;15207;42.182;24.308;2023-04-24T11:37:37;7.13;;;4.88;;
27839;SDS011;15207;42.182;24.308;2023-04-24T11:40:08;8.68;;;5.80;;
27839;SDS011;15207;42.182;24.308;2023-04-24T11:45:01;8.02;;;4.65;;
27839;SDS011;15207;42.182;24.308;2023-04-24T11:47:32;9.73;;;6.05;;
27839;SDS011;15207;42.182;24.308;2023-04-24T11:50:00;8.57;;;5.00;;
27839;SDS011;15207;42.182;24.308;2023-04-24T11:52:27;8.88;;;5.45;;
27839;SDS011;15207;42.182;24.308;2023-04-24T11:54:52;8.13;;;4.75;;
27839;SDS011;15207;42.182;24.308;2023-04-24T11:57:21;9.77;;;6.30;;
27839;SDS011;15207;42.182;24.308;2023-04-24T11:59:51;12.82;;;6.60;;
27839;SDS011;15207;42.182;24.308;2023-04-24T12:02:23;10.45;;;5.50;;
27839;SDS011;15207;42.182;24.308;2023-04-24T12:04:50;7.47;;;5.30;;
27839;SDS011;15207;42.182;24.308;2023-04-24T12:07:16;9.07;;;5.38;;
27839;SDS011;15207;42.182;24.308;2023-04-24T12:09:50;11.95;;;5.70;;
27839;SDS011;15207;42.182;24.308;2023-04-24T12:12:26;7.88;;;5.78;;
27839;SDS011;15207;42.182;24.308;2023-04-24T12:14:53;8.48;;;5.72;;
27839;SDS011;15207;42.182;24.308;2023-04-24T12:17:40;10.80;;;5.57;;
27839;SDS011;15207;42.182;24.308;2023-04-24T12:20:07;17.20;;;6.40;;
27839;SDS011;15207;42.182;24.308;2023-04-24T12:25:31;8.25;;;4.80;;
27839;SDS011;15207;42.182;24.308;2023-04-24T12:30:30;9.13;;;5.20;;
27839;SDS011;15207;42.182;24.308;2023-04-24T12:33:00;8.50;;;4.72;;
27839;SDS011;15207;42.182;24.308;2023-04-24T12:35:28;8.23;;;5.22;;
27839;SDS011;15207;42.182;24.308;2023-04-24T12:38:09;7.22;;;4.75;;
27839;SDS011;15207;42.182;24.308;2023-04-24T12:40:40;5.10;;;4.13;;
27839;SDS011;15207;42.182;24.308;2023-04-24T12:43:17;6.03;;;4.60;;
27839;SDS011;15207;42.182;24.308;2023-04-24T12:45:44;6.28;;;4.43;;
27839;SDS011;15207;42.182;24.308;2023-04-24T12:48:12;7.25;;;3.95;;
27839;SDS011;15207;42.182;24.308;2023-04-24T12:50:39;7.35;;;4.47;;
27839;SDS011;15207;42.182;24.308;2023-04-24T12:53:05;6.45;;;4.68;;
27839;SDS011;15207;42.182;24.308;2023-04-24T12:55:31;12.98;;;5.07;;
27839;SDS011;15207;42.182;24.308;2023-04-24T12:57:57;8.43;;;4.28;;
27839;SDS011;15207;42.182;24.308;2023-04-24T13:00:23;5.43;;;4.60;;
27839;SDS011;15207;42.182;24.308;2023-04-24T13:02:48;7.53;;;4.93;;
27839;SDS011;15207;42.182;24.308;2023-04-24T13:05:14;8.82;;;4.53;;
27839;SDS011;15207;42.182;24.308;2023-04-24T13:07:40;10.75;;;4.95;;
27839;SDS011;15207;42.182;24.308;2023-04-24T13:10:06;7.15;;;4.80;;
27839;SDS011;15207;42.182;24.308;2023-04-24T13:12:32;11.15;;;4.88;;
27839;SDS011;15207;42.182;24.308;2023-04-24T13:14:58;12.48;;;4.78;;
27839;SDS011;15207;42.182;24.308;2023-04-24T13:17:24;6.75;;;4.22;;
27839;SDS011;15207;42.182;24.308;2023-04-24T13:19:50;6.88;;;4.32;;
27839;SDS011;15207;42.182;24.308;2023-04-24T13:22:16;8.05;;;4.47;;
27839;SDS011;15207;42.182;24.308;2023-04-24T13:24:46;7.35;;;4.10;;
27839;SDS011;15207;42.182;24.308;2023-04-24T13:27:13;8.15;;;5.05;;
27839;SDS011;15207;42.182;24.308;2023-04-24T13:29:39;7.25;;;4.55;;
27839;SDS011;15207;42.182;24.308;2023-04-24T13:32:05;4.80;;;4.28;;
27839;SDS011;15207;42.182;24.308;2023-04-24T13:34:31;6.88;;;3.63;;
27839;SDS011;15207;42.182;24.308;2023-04-24T13:36:57;5.80;;;4.10;;
27839;SDS011;15207;42.182;24.308;2023-04-24T13:39:23;5.72;;;3.97;;
27839;SDS011;15207;42.182;24.308;2023-04-24T13:41:50;7.15;;;4.40;;
27839;SDS011;15207;42.182;24.308;2023-04-24T13:44:16;5.00;;;3.70;;
27839;SDS011;15207;42.182;24.308;2023-04-24T13:46:43;6.53;;;3.80;;
27839;SDS011;15207;42.182;24.308;2023-04-24T13:49:11;6.38;;;3.85;;
27839;SDS011;15207;42.182;24.308;2023-04-24T13:51:37;6.07;;;3.63;;
27839;SDS011;15207;42.182;24.308;2023-04-24T13:54:03;6.75;;;3.70;;
27839;SDS011;15207;42.182;24.308;2023-04-24T13:56:28;5.75;;;3.22;;
27839;SDS011;15207;42.182;24.308;2023-04-24T13:58:54;4.63;;;3.63;;
27839;SDS011;15207;42.182;24.308;2023-04-24T14:01:20;6.57;;;4.13;;
27839;SDS011;15207;42.182;24.308;2023-04-24T14:03:50;5.05;;;3.65;;
27839;SDS011;15207;42.182;24.308;2023-04-24T14:06:16;4.55;;;3.78;;
27839;SDS011;15207;42.182;24.308;2023-04-24T14:08:43;5.85;;;3.42;;
27839;SDS011;15207;42.182;24.308;2023-04-24T14:11:09;7.38;;;3.90;;
27839;SDS011;15207;42.182;24.308;2023-04-24T14:13:35;6.10;;;4.00;;
27839;SDS011;15207;42.182;24.308;2023-04-24T14:16:02;5.03;;;3.90;;
27839;SDS011;15207;42.182;24.308;2023-04-24T14:18:28;4.40;;;3.55;;
27839;SDS011;15207;42.182;24.308;2023-04-24T14:20:54;5.65;;;3.85;;
27839;SDS011;15207;42.182;24.308;2023-04-24T14:23:19;6.25;;;3.53;;
27839;SDS011;15207;42.182;24.308;2023-04-24T14:25:45;5.47;;;4.20;;
27839;SDS011;15207;42.182;24.308;2023-04-24T14:28:11;7.50;;;3.75;;
27839;SDS011;15207;42.182;24.308;2023-04-24T14:30:36;6.57;;;3.63;;
27839;SDS011;15207;42.182;24.308;2023-04-24T14:33:02;4.68;;;3.45;;
27839;SDS011;15207;42.182;24.308;2023-04-24T14:35:29;4.45;;;3.55;;
27839;SDS011;15207;42.182;24.308;2023-04-24T14:37:56;5.95;;;3.60;;
27839;SDS011;15207;42.182;24.308;2023-04-24T14:40:22;8.07;;;3.78;;
27839;SDS011;15207;42.182;24.308;2023-04-24T14:42:47;4.55;;;3.50;;
27839;SDS011;15207;42.182;24.308;2023-04-24T14:45:13;7.65;;;3.97;;
27839;SDS011;15207;42.182;24.308;2023-04-24T14:47:39;4.93;;;3.53;;
27839;SDS011;15207;42.182;24.308;2023-04-24T14:50:05;4.40;;;3.25;;